Ana Sayfa
METAR-TAF:

METAR-TAF

Havaalanları :

East Jakarta, Endonezya

Enlem: 06-15-59S, Boylam: 106-53-28E, yükseklik: 25 m

METAR: eksik

Saat: 02:18 (19:18 UTC)

Tahmin

Rapor saat 05:00 UTC de 14 saat ve 18 dakika önce yapıldı.
Ayın 10'si saat 06 UTC'den ayın 11'si saat 06 UTC'ye kadar geçerli Tahmin
Rüzgar kuzeydan 8 kt
Görüş mesafesi: 6000 m
2000 ft yükseklikte parçalı bulutlu
Geçici
ayın 10'si saat 11 UTC'den ayın 10'si saat 14 UTC'ye kadar
Görüş mesafesi: 3000 m
1700 ft yükseklikte az bulutlu, Kümülonimbus.
1800 ft yükseklikte parçalı çok bulutlu
gök gürültülü fırtına, yağmur
Dönüşüyor
ayın 10'si saat 16 UTC'den ayın 10'si saat 18 UTC'ye kadar
Rüzgar güneybatıdan 5 kt
Görüş mesafesi: 5000 m
2200 ft yükseklikte az bulutlu
Toz Pusu

TAF: WIHH 100500Z 1006/1106 36008KT 6000 SCT020 TEMPO 1011/1014 3000 TSRA FEW017CB BKN018 BECMG 1016/1018 22005KT 5000 HZ FEW022

4.000'den fazla havaalanı için hava durumu gözlemleri ve tahminleri (METAR ve TAF raporları).

Kullanılabilir istasyonlar harita üzerinde sarı ve kırmızı noktalarla gösterilir.

İstasyonun adını görmek için fareyi noktanın üzerinde gezdirin.

Sonrasında hava gözlem ve tahminlerini görmek için tıklayın.

Haritayı değiştirmek için: yaklaştırmak için siyah artı işaretli yeşil düğmeye ve uzaklaştırmak için de eksi işaretli düğmeye hızla tıklayın; bitişik haritalar için yeşil okları kullanın.


METAR-TAF: